createdAt,value
2018-11-04T00:00:15.447Z,26.90
2018-11-04T00:05:33.989Z,22.30
2018-11-04T00:10:52.514Z,19.73
2018-11-04T00:16:11.028Z,26.43
2018-11-04T00:21:29.499Z,32.67
2018-11-04T00:26:48.032Z,24.20
2018-11-04T00:32:06.666Z,20.30
2018-11-04T00:37:25.246Z,25.93
2018-11-04T00:42:43.749Z,22.77
2018-11-04T00:48:02.270Z,20.83
2018-11-04T00:53:21.210Z,24.87
2018-11-04T00:58:39.715Z,28.37
2018-11-04T01:03:58.247Z,28.10
2018-11-04T01:09:16.880Z,30.33
2018-11-04T01:14:35.332Z,26.63
2018-11-04T01:19:53.900Z,28.27
2018-11-04T01:25:12.442Z,26.93
2018-11-04T01:30:37.667Z,28.07
2018-11-04T01:35:56.181Z,31.83
2018-11-04T01:41:14.704Z,28.87
2018-11-04T01:46:33.190Z,33.97
2018-11-04T01:51:51.711Z,26.67
2018-11-04T01:57:10.258Z,27.87
2018-11-04T02:02:28.767Z,31.53
2018-11-04T02:07:47.279Z,31.60
2018-11-04T02:13:06.034Z,32.90
2018-11-04T02:18:24.575Z,37.63
2018-11-04T02:23:43.181Z,32.27
2018-11-04T02:29:01.691Z,33.73
2018-11-04T02:34:20.203Z,36.03
2018-11-04T02:39:38.726Z,37.37
2018-11-04T02:44:57.320Z,36.30
2018-11-04T02:50:15.901Z,34.83
2018-11-04T02:55:34.425Z,40.30
2018-11-04T03:00:52.911Z,42.47
2018-11-04T03:06:11.426Z,29.80
2018-11-04T03:11:29.993Z,33.98
2018-11-04T03:16:48.552Z,36.53
2018-11-04T03:22:07.380Z,42.80
2018-11-04T03:27:25.901Z,45.00
2018-11-04T03:32:44.411Z,39.33
2018-11-04T03:38:02.888Z,40.55
2018-11-04T03:43:21.564Z,49.13
2018-11-04T03:48:40.061Z,51.73
2018-11-04T03:53:58.555Z,70.70
2018-11-04T03:59:17.055Z,76.80
2018-11-04T04:04:35.631Z,77.67
2018-11-04T04:09:54.183Z,119.00
2018-11-04T04:15:12.739Z,86.80
2018-11-04T04:20:31.328Z,48.03
2018-11-04T04:25:49.849Z,45.07
2018-11-04T04:31:08.395Z,42.90
2018-11-04T04:36:26.916Z,47.53
2018-11-04T04:41:45.407Z,58.07
2018-11-04T04:47:03.931Z,65.07
2018-11-04T04:52:22.455Z,72.33
2018-11-04T04:57:40.935Z,70.93
2018-11-04T05:02:59.462Z,75.80
2018-11-04T05:08:18.007Z,103.62
2018-11-04T05:13:36.538Z,92.93
2018-11-04T05:18:55.051Z,81.77
2018-11-04T05:24:13.544Z,69.83
2018-11-04T05:29:32.070Z,67.73
2018-11-04T05:34:50.564Z,61.77
2018-11-04T05:40:09.298Z,67.65
2018-11-04T05:45:27.836Z,62.40
2018-11-04T05:50:46.308Z,66.10
2018-11-04T05:56:04.948Z,70.23
2018-11-04T06:01:23.579Z,65.73
2018-11-04T06:06:42.124Z,68.47
2018-11-04T06:12:00.659Z,67.60
2018-11-04T06:17:19.333Z,65.97
2018-11-04T06:22:37.850Z,64.17
2018-11-04T06:27:56.368Z,65.30
2018-11-04T06:33:15.582Z,65.53
2018-11-04T06:38:34.153Z,61.97
2018-11-04T06:43:52.659Z,60.37
2018-11-04T06:49:11.207Z,67.27
2018-11-04T06:54:29.754Z,59.57
2018-11-04T06:59:49.449Z,61.50
2018-11-04T07:05:08.014Z,60.57
2018-11-04T07:10:27.144Z,57.17
2018-11-04T07:15:46.773Z,58.30
2018-11-04T07:21:05.671Z,60.90
2018-11-04T07:26:24.210Z,61.40
2018-11-04T07:31:43.439Z,63.63
2018-11-04T07:37:01.987Z,60.67
2018-11-04T07:42:20.603Z,62.23
2018-11-04T07:47:39.295Z,59.90
2018-11-04T07:52:57.878Z,60.60
2018-11-04T07:58:16.441Z,56.50
2018-11-04T08:03:34.986Z,63.87
2018-11-04T08:08:53.924Z,66.10
2018-11-04T08:14:12.469Z,69.00
2018-11-04T08:19:31.015Z,62.70
2018-11-04T08:24:49.562Z,61.13
2018-11-04T08:30:09.132Z,58.57
2018-11-04T08:35:27.622Z,60.47
2018-11-04T08:40:46.222Z,61.50
2018-11-04T08:46:04.787Z,54.90
2018-11-04T08:51:23.322Z,56.83
2018-11-04T08:56:41.858Z,59.00
2018-11-04T09:02:00.349Z,59.90
2018-11-04T09:07:18.965Z,60.93
2018-11-04T09:12:37.758Z,60.20
2018-11-04T09:17:57.924Z,57.80
2018-11-04T09:23:17.034Z,62.20
2018-11-04T09:28:36.210Z,56.27
2018-11-04T09:33:54.718Z,58.57
2018-11-04T09:39:13.391Z,57.07
2018-11-04T09:44:31.881Z,55.90
2018-11-04T09:49:50.413Z,56.37
2018-11-04T09:55:10.005Z,52.07
2018-11-04T10:00:28.768Z,59.60
2018-11-04T10:05:48.876Z,61.47
2018-11-04T10:11:07.458Z,52.93
2018-11-04T10:16:26.031Z,60.17
2018-11-04T10:21:44.486Z,55.77
2018-11-04T10:27:03.136Z,55.97
2018-11-04T10:32:21.672Z,53.67
2018-11-04T10:37:41.239Z,55.87
2018-11-04T10:42:59.911Z,53.50
2018-11-04T10:48:19.209Z,51.53
2018-11-04T10:53:37.787Z,50.87
2018-11-04T10:58:56.427Z,49.00
2018-11-04T11:04:16.143Z,49.30
2018-11-04T11:09:34.766Z,50.37
2018-11-04T11:14:53.476Z,48.63
2018-11-04T11:20:13.221Z,46.37
2018-11-04T11:25:32.282Z,51.33
2018-11-04T11:30:51.469Z,50.37
2018-11-04T11:36:10.222Z,44.97
2018-11-04T11:41:28.773Z,53.07
2018-11-04T11:46:47.915Z,55.67
2018-11-04T11:52:07.845Z,55.57
2018-11-04T11:57:26.955Z,45.00
2018-11-04T12:02:45.481Z,51.00
2018-11-04T12:08:04.075Z,46.00
2018-11-04T12:13:22.637Z,48.80
2018-11-04T12:18:42.759Z,51.23
2018-11-04T12:24:01.466Z,49.77
2018-11-04T12:29:20.140Z,48.60
2018-11-04T12:34:38.679Z,50.03
2018-11-04T12:39:58.136Z,40.80
2018-11-04T12:45:16.772Z,46.00
2018-11-04T12:50:35.872Z,42.27
2018-11-04T12:55:54.549Z,45.67
2018-11-04T13:01:13.145Z,41.10
2018-11-04T13:06:31.667Z,42.80
2018-11-04T13:11:50.178Z,44.93
2018-11-04T13:17:08.831Z,36.17
2018-11-04T13:22:27.551Z,42.97
2018-11-04T13:27:46.110Z,42.03
2018-11-04T13:33:04.947Z,43.37
2018-11-04T13:38:23.491Z,41.43
2018-11-04T13:43:41.999Z,37.80
2018-11-04T13:49:00.551Z,37.07
2018-11-04T13:54:19.104Z,45.97
2018-11-04T13:59:37.905Z,38.17
2018-11-04T14:04:56.431Z,41.57
2018-11-04T14:10:16.046Z,39.27
2018-11-04T14:15:34.535Z,37.93
2018-11-04T14:20:53.059Z,36.60
2018-11-04T14:26:13.367Z,42.60
2018-11-04T14:31:31.951Z,39.60
2018-11-04T14:36:50.593Z,38.00
2018-11-04T14:42:09.185Z,37.20
2018-11-04T14:47:27.735Z,33.33
2018-11-04T14:52:46.581Z,34.07
2018-11-04T14:58:05.628Z,36.37
2018-11-04T15:03:25.547Z,38.50
2018-11-04T15:08:44.189Z,37.17
2018-11-04T15:14:03.395Z,31.43
2018-11-04T15:19:22.471Z,35.60
2018-11-04T15:24:40.988Z,35.03
2018-11-04T15:29:59.520Z,35.27
2018-11-04T15:35:18.534Z,35.83
2018-11-04T15:40:37.987Z,37.33
2018-11-04T15:45:56.497Z,32.10
2018-11-04T15:51:15.078Z,34.40
2018-11-04T15:56:33.707Z,35.80
2018-11-04T16:01:52.199Z,33.50
2018-11-04T16:07:10.846Z,33.73
2018-11-04T16:12:29.875Z,38.10
2018-11-04T16:17:48.448Z,30.17
2018-11-04T16:23:07.000Z,32.67
2018-11-04T16:28:25.604Z,33.87
2018-11-04T16:33:44.179Z,28.30
2018-11-04T16:39:02.723Z,25.90
2018-11-04T16:44:21.579Z,34.27
2018-11-04T16:49:40.025Z,26.33
2018-11-04T16:54:58.678Z,27.40
2018-11-04T17:00:17.492Z,25.48
2018-11-04T17:05:36.590Z,24.67
2018-11-04T17:10:55.191Z,23.80
2018-11-04T17:16:15.337Z,27.60
2018-11-04T17:21:34.570Z,25.57
2018-11-04T17:26:53.293Z,29.63
2018-11-04T17:32:12.116Z,27.03
2018-11-04T17:37:30.662Z,25.57
2018-11-04T17:42:49.186Z,25.43
2018-11-04T17:48:07.726Z,28.60
2018-11-04T17:53:26.462Z,31.42
2018-11-04T17:58:44.982Z,31.60
2018-11-04T18:04:03.814Z,26.70
2018-11-04T18:09:22.311Z,26.00
2018-11-04T18:14:45.284Z,27.27
2018-11-04T18:20:04.132Z,24.60
2018-11-04T18:25:23.245Z,24.70
2018-11-04T18:30:41.807Z,25.10
2018-11-04T18:36:00.338Z,25.43
2018-11-04T18:41:18.846Z,25.20
2018-11-04T18:46:37.424Z,37.90
2018-11-04T18:51:56.060Z,21.35
2018-11-04T18:57:14.588Z,20.83
2018-11-04T19:02:33.299Z,22.50
2018-11-04T19:07:51.832Z,22.87
2018-11-04T19:13:10.413Z,20.82
2018-11-04T19:18:28.990Z,21.87
2018-11-04T19:23:47.566Z,25.17
2018-11-04T19:29:06.180Z,27.80
2018-11-04T19:34:24.859Z,23.93
2018-11-04T19:39:44.207Z,30.70
2018-11-04T19:45:02.803Z,29.60
2018-11-04T19:50:21.692Z,24.97
2018-11-04T19:55:40.261Z,29.17
2018-11-04T20:00:58.788Z,24.87
2018-11-04T20:06:17.593Z,25.03
2018-11-04T20:11:36.247Z,28.25
2018-11-04T20:16:55.604Z,24.57
2018-11-04T20:22:14.144Z,29.20
2018-11-04T20:27:32.737Z,28.17
2018-11-04T20:32:56.758Z,25.43
2018-11-04T20:38:15.696Z,23.93
2018-11-04T20:43:34.865Z,28.03
2018-11-04T20:48:58.739Z,25.43
2018-11-04T20:54:17.487Z,24.63
2018-11-04T20:59:36.022Z,33.13
2018-11-04T21:04:55.222Z,26.43
2018-11-04T21:10:14.942Z,26.52
2018-11-04T21:15:36.642Z,26.87
2018-11-04T21:20:55.306Z,25.33
2018-11-04T21:26:14.800Z,26.97
2018-11-04T21:31:35.239Z,26.80
2018-11-04T21:36:53.914Z,32.63
2018-11-04T21:42:14.837Z,27.13
2018-11-04T21:47:33.649Z,21.93
2018-11-04T21:52:52.738Z,22.63
2018-11-04T21:58:11.863Z,26.83
2018-11-04T22:03:30.478Z,32.67
2018-11-04T22:08:49.045Z,31.12
2018-11-04T22:14:07.580Z,31.07
2018-11-04T22:19:26.111Z,28.27
2018-11-04T22:24:44.896Z,25.50
2018-11-04T22:30:04.778Z,27.00
2018-11-04T22:35:23.414Z,29.17
2018-11-04T22:40:45.731Z,25.07
2018-11-04T22:46:04.621Z,22.80
2018-11-04T22:51:23.158Z,26.93
2018-11-04T22:56:41.733Z,25.93
2018-11-04T23:02:00.190Z,25.90
2018-11-04T23:07:18.662Z,27.00
2018-11-04T23:12:37.611Z,27.73
2018-11-04T23:17:56.182Z,33.60
2018-11-04T23:23:14.705Z,29.00
2018-11-04T23:28:33.217Z,32.20
2018-11-04T23:33:51.746Z,28.70
2018-11-04T23:39:10.917Z,29.63
2018-11-04T23:44:29.448Z,33.07
2018-11-04T23:49:47.963Z,28.00
2018-11-04T23:55:08.287Z,24.73
